Pagina principală
METAR-TAF:

METAR-TAF

Aeroporturi :

Viña del Mar, Chile

Latitudine: 32-56-59S, longitudine: 71-28-43W, elevație: 141 m

Observații meteo curente

Raportul a fost făcut în urmă cu 56 de minute, la 09:00 UTC
Vânt 4 kt de la Est
Temperatură 8°C
Umiditate 87%
Presiune 1016 hPa
Vizibilitate de 10 km sau mai mult
nu există nori sub 1.500 m și nici cumulonimbus

METAR: SCVM 280900Z 09004KT CAVOK 08/06 Q1016

Ora: 05:56 (09:56 UTC)


TAF: lipsă

Observații și prognoze meteo pentru peste 4.000 de aeroporturi (rapoarte METAR și TAF).

Stațiile disponibile sunt reprezentate pe hartă prin puncte galbene și roșii.

Țineți indicatorul mouse-ului pe punctul dorit pentru a vedea denumirea stației.

Apoi, faceți clic pentru a vedea observațiile și prognozele meteorologice.

Pentru a schimba harta: Pentru mărire, faceți clic pe butoanele verzi cu cruce neagră; pentru micșorare, pe butonul verde cu o liniuță; pentru hărți învecinate, pe săgețile verzi.


METAR-TAF: